Latest Coastal Weather Observations for Truscott

IDW60701

Issued at 5:33 am WST Monday 21 May 2018 (issued every 10 minutes, with the page automatically refreshed every 10 minutes)

About coastal observations | Map of coastal stations | Coastal observations for WA | Marine services | Other Formats
Station Details ID: 001020 Name: TRUSCOTT Lat: -14.09 Lon: 126.39 Height: 51.0 m
Data from the previous 72 hours. | See also: Recent months at Truscott
Date/Time
WST
Temp
°C
Wind Pressure Rain since
9am
mm
Weather Cloud Vis
km
Sea
Height
m
Swell
Dir  Spd
kts
Gust
kts
hPa Trend Height
m
Period
s
Dir
21/05:30am 23.3 SE 8 14 1013.1 - 0.0 - Clear 10 - - - -
21/05:00am 23.4 SE 8 15 1012.7 - 0.0 - - 10 - - - -
21/04:30am 23.5 SE 9 14 1012.6 - 0.0 - - 10 - - - -
21/04:00am 23.2 SE 7 10 1012.5 - 0.0 - - 10 - - - -
21/03:30am 22.9 SE 6 11 1012.4 - 0.0 - - 10 - - - -
21/03:00am 22.5 ESE 5 9 1012.1 - 0.0 - - 10 - - - -
21/02:30am 22.1 ESE 5 7 1012.3 - 0.0 - - 10 - - - -
21/02:00am 20.4 SE 3 5 1012.5 - 0.0 - - 10 - - - -
21/01:30am 20.9 SSE 4 5 1012.9 - 0.0 - - 10 - - - -
21/01:00am 21.1 SSE 4 5 1013.0 - 0.0 - - 10 - - - -
21/12:30am 21.0 SSE 4 5 1013.2 - 0.0 - - 10 - - - -
21/12:00am 20.7 SSE 3 5 1013.3 - 0.0 - - 10 - - - -
 
Date/Time
WST
Temp
°C
Wind Pressure Rain since
9am
mm
Weather Cloud Vis
km
Sea
Height
m
Swell
Dir  Spd
kts
Gust
kts
hPa Trend Height
m
Period
s
Dir
20/11:30pm 20.6 SE 3 5 1013.7 - 0.0 - - 10 - - - -
20/11:00pm 20.7 SE 3 4 1014.0 - 0.0 - - 10 - - - -
20/10:30pm 21.2 SE 3 4 1014.2 - 0.0 - - 10 - - - -
20/10:00pm 21.2 SSE 3 5 1014.2 - 0.0 - - 10 - - - -
20/09:30pm 22.0 SE 3 5 1014.3 - 0.0 - - 10 - - - -
20/09:00pm 22.1 SE 3 5 1014.3 - 0.0 - - 10 - - - -
20/08:30pm 22.3 SE 3 4 1014.3 - 0.0 - - 10 - - - -
20/08:00pm 22.4 ESE 3 4 1014.0 - 0.0 - - 10 - - - -
20/07:30pm 23.1 ENE 3 4 1013.7 - 0.0 - - 10 - - - -
20/07:00pm 24.0 ENE 4 5 1013.2 - 0.0 - - 10 - - - -
20/06:30pm 24.1 E 4 5 1012.7 - 0.0 - - 10 - - - -
20/06:00pm 24.7 E 4 5 1012.0 - 0.0 - - 10 - - - -
20/05:30pm 25.7 ENE 4 6 1011.9 - 0.0 - - 10 - - - -
20/05:00pm 26.8 E 5 7 1011.5 - 0.0 - - 10 - - - -
20/04:30pm 28.3 E 6 8 1011.1 - 0.0 - - 10 - - - -
20/04:00pm 29.2 E 6 11 1010.9 - 0.0 - - 10 - - - -
20/03:30pm 29.3 E 7 11 1010.7 - 0.0 - - 10 - - - -
20/03:00pm 29.8 E 7 11 1010.3 - 0.0 - - 10 - - - -
20/02:30pm 30.1 E 7 12 1010.6 - 0.0 - - 10 - - - -
20/02:00pm 29.4 ENE 9 12 1010.8 - 0.0 - - 10 - - - -
20/01:30pm 29.3 E 9 14 1011.0 - 0.0 - - 10 - - - -
20/01:00pm 29.4 E 10 15 1011.1 - 0.0 - - 10 - - - -
20/12:30pm 29.0 E 11 17 1011.4 - 0.0 - - 10 - - - -
20/12:00pm 28.7 E 11 17 1011.3 - 0.0 - - 10 - - - -
20/11:30am 28.6 ESE 11 17 1011.7 - 0.0 - - 10 - - - -
20/11:00am 28.1 ESE 11 18 1011.9 - 0.0 - - 10 - - - -
20/10:30am 28.1 ESE 9 16 1012.2 - 0.0 - - 10 - - - -
20/10:00am 26.9 ESE 11 17 1012.6 - 0.0 - - 10 - - - -
20/09:30am 26.1 ESE 11 18 1012.9 - 0.0 - - 10 - - - -
20/09:00am 25.7 ESE 10 16 1013.0 - 0.0 - - 10 - - - -
20/08:30am 24.5 ESE 9 15 1013.1 - 0.0 - - 10 - - - -
20/08:00am 23.7 SE 11 19 1013.1 - 0.0 - - 10 - - - -
20/07:30am 23.0 SE 8 13 1012.9 - 0.0 - - 10 - - - -
20/07:00am 22.0 SE 8 13 1012.8 - 0.0 - - 10 - - - -
20/06:30am 21.1 SE 7 11 1012.7 - 0.0 - - 10 - - - -
20/06:00am 20.7 SE 7 12 1012.0 - 0.0 - - 10 - - - -
20/05:30am 20.5 SE 6 8 1012.2 - 0.0 - - 10 - - - -
20/05:00am 20.6 ESE 6 9 1012.1 - 0.0 - - 10 - - - -
20/04:30am 20.6 SE 6 10 1012.0 - 0.0 - - 10 - - - -
20/04:00am 20.8 SE 7 10 1011.9 - 0.0 - - 10 - - - -
20/03:30am 20.9 ESE 6 9 1011.8 - 0.0 - - 10 - - - -
20/03:00am 20.8 ESE 6 8 1011.7 - 0.0 - - 10 - - - -
20/02:30am 20.6 SE 5 8 1012.1 - 0.0 - - 10 - - - -
20/02:00am 20.3 SE 4 6 1012.2 - 0.0 - - 10 - - - -
20/01:30am 20.2 SE 5 7 1012.3 - 0.0 - - 10 - - - -
20/01:00am 19.7 SE 4 6 1012.5 - 0.0 - - 10 - - - -
20/12:30am 19.7 SSE 4 6 1012.9 - 0.0 - - 10 - - - -
20/12:00am 20.1 SE 5 7 1012.9 - 0.0 - - 10 - - - -
 
Date/Time
WST
Temp
°C
Wind Pressure Rain since
9am
mm
Weather Cloud Vis
km
Sea
Height
m
Swell
Dir  Spd
kts
Gust
kts
hPa Trend Height
m
Period
s
Dir
19/11:30pm 20.2 SE 4 6 1013.4 - 0.0 - - 10 - - - -
19/11:00pm 20.9 SE 5 7 1013.6 - 0.0 - - 10 - - - -
19/10:30pm 20.4 SE 4 6 1013.9 - 0.0 - - 10 - - - -
19/10:00pm 19.8 SE 3 5 1013.9 - 0.0 - - 10 - - - -
19/09:30pm 21.1 ESE 4 6 1013.9 - 0.0 - - 10 - - - -
19/09:00pm 20.9 ESE 4 6 1013.8 - 0.0 - - 10 - - - -
19/08:30pm 20.5 ESE 4 5 1014.0 - 0.0 - - 10 - - - -
19/08:00pm 19.8 ESE 4 5 1013.9 - 0.0 - - 10 - - - -
19/07:30pm 20.0 ESE 4 4 1013.7 - 0.0 - - 10 - - - -
19/07:00pm 20.4 E 3 4 1013.1 - 0.0 - - 10 - - - -
19/06:30pm 21.0 E 3 4 1012.5 - 0.0 - - 10 - - - -
19/06:00pm 23.0 ENE 4 5 1012.0 - 0.0 - - 10 - - - -
19/05:30pm 24.0 E 4 5 1011.8 - 0.0 - - 10 - - - -
19/05:00pm 25.5 E 5 7 1011.2 - 0.0 - - 10 - - - -
19/04:30pm 26.7 ENE 7 10 1010.9 - 0.0 - - 10 - - - -
19/04:00pm 27.6 ENE 7 11 1010.5 - 0.0 - - 10 - - - -
19/03:30pm 28.0 ENE 8 12 1010.3 - 0.0 - - 10 - - - -
19/03:00pm 28.2 ENE 9 16 1010.0 - 0.0 - - 10 - - - -
19/02:30pm 28.2 E 10 15 1010.2 - 0.0 - - 10 - - - -
19/02:00pm 28.7 E 9 15 1010.3 - 0.0 - - 10 - - - -
19/01:30pm 28.3 E 10 17 1010.3 - 0.0 - - 10 - - - -
19/01:00pm 28.5 E 11 21 1010.5 - 0.0 - - 10 - - - -
19/12:30pm 27.9 E 12 19 1010.6 - 0.0 - - 10 - - - -
19/12:00pm 27.5 E 13 20 1010.8 - 0.0 - - 10 - - - -
19/11:30am 27.4 E 12 21 1011.4 - 0.0 - - 10 - - - -
19/11:00am 26.6 ESE 12 20 1011.8 - 0.0 - - 10 - - - -
19/10:30am 26.5 E 13 23 1012.1 - 0.0 - - 10 - - - -
19/10:00am 26.3 ESE 12 20 1012.6 - 0.0 - - 10 - - - -
19/09:30am 25.6 ESE 12 19 1012.9 - 0.0 - - 10 - - - -
19/09:00am 25.2 ESE 11 19 1012.7 - 0.0 - - 10 - - - -
19/08:30am 24.2 ESE 12 19 1012.7 - 0.0 - - 10 - - - -
19/08:00am 23.7 ESE 11 20 1012.7 - 0.0 - - 10 - - - -
19/07:30am 22.6 ESE 10 18 1012.7 - 0.0 - - 10 - - - -
19/07:00am 21.8 ESE 10 17 1012.7 - 0.0 - - 10 - - - -
19/06:30am 21.0 SE 8 13 1012.5 - 0.0 - - 10 - - - -
19/06:00am 20.2 SE 7 11 1011.9 - 0.0 - - 10 - - - -
19/05:30am 20.2 SE 7 11 1011.8 - 0.0 - - 10 - - - -
19/05:00am 20.3 SE 6 9 1011.6 - 0.0 - - 10 - - - -
19/04:30am 20.1 SE 6 9 1011.6 - 0.0 - - 10 - - - -
19/04:00am 20.0 SE 5 8 1011.7 - 0.0 - - 10 - - - -
19/03:30am 19.9 SE 6 9 1011.8 - 0.0 - - 10 - - - -
19/03:00am 20.0 SSE 6 8 1011.7 - 0.0 - - 10 - - - -
19/02:30am 20.1 SSE 6 8 1012.1 - 0.0 - - 10 - - - -
19/02:00am 19.9 SSE 6 9 1012.2 - 0.0 - - 10 - - - -
19/01:30am 20.0 SSE 5 9 1012.4 - 0.0 - - 10 - - - -
19/01:00am 20.1 SSE 5 8 1012.6 - 0.0 - - 10 - - - -
19/12:30am 20.3 SSE 5 7 1012.9 - 0.0 - - 10 - - - -
19/12:00am 20.4 SSE 5 7 1013.0 - 0.0 - - 10 - - - -
 
Date/Time
WST
Temp
°C
Wind Pressure Rain since
9am
mm
Weather Cloud Vis
km
Sea
Height
m
Swell
Dir  Spd
kts
Gust
kts
hPa Trend Height
m
Period
s
Dir
18/11:30pm 20.5 SSE 5 7 1013.5 - 0.0 - - 10 - - - -
18/11:00pm 20.4 SSE 5 6 1013.7 - 0.0 - - 10 - - - -
18/10:30pm 20.2 SSE 5 6 1013.7 - 0.0 - - 10 - - - -
18/10:00pm 19.8 SSE 4 7 1013.7 - 0.0 - - 10 - - - -
18/09:30pm 20.3 SE 4 5 1013.8 - 0.0 - - 10 - - - -
18/09:00pm 19.5 SE 4 5 1013.8 - 0.0 - - 10 - - - -
18/08:30pm 21.4 SE 4 6 1014.2 - 0.0 - - 10 - - - -
18/08:00pm 19.7 ESE 4 5 1014.0 - 0.0 - - 10 - - - -
18/07:30pm 20.1 SE 4 5 1013.8 - 0.0 - - 10 - - - -
18/07:00pm 20.5 E 4 5 1013.1 - 0.0 - - 10 - - - -
18/06:30pm 21.8 ESE 3 5 1012.7 - 0.0 - - 10 - - - -
18/06:00pm 22.3 ESE 3 4 1012.1 - 0.0 - - 10 - - - -
18/05:30pm 23.9 E 4 6 1011.9 - 0.0 - - 10 - - - -
18/05:00pm 25.3 ENE 6 11 1011.5 - 0.0 - - 10 - - - -
18/04:30pm 26.4 ENE 7 13 1011.1 - 0.0 - - 10 - - - -
18/04:00pm 27.2 ENE 10 19 1010.9 - 0.0 - - 10 - - - -
18/03:30pm 27.8 ENE 11 15 1010.8 - 0.0 - - 10 - - - -
18/03:00pm 28.3 ENE 10 15 1010.5 - 0.0 - - 10 - - - -
18/02:30pm 28.2 ENE 10 15 1010.8 - 0.0 - - 10 - - - -
18/02:00pm 28.6 ENE 11 16 1010.8 - 0.0 - - 10 - - - -
18/01:30pm 28.5 E 11 21 1010.7 - 0.0 - - 10 - - - -
18/01:00pm 28.9 E 10 19 1010.9 - 0.0 - - 10 - - - -
18/12:30pm 28.3 E 11 19 1011.3 - 0.0 - - 10 - - - -
18/12:00pm 27.8 E 11 19 1011.4 - 0.0 - - 10 - - - -
18/11:30am 27.3 E 12 22 1011.9 - 0.0 - - 10 - - - -
18/11:00am 27.5 E 13 19 1012.3 - 0.0 - - 10 - - - -
18/10:30am 26.3 E 13 23 1012.6 - 0.0 - - 10 - - - -
18/10:00am 25.7 E 14 20 1013.2 - 0.0 - - 10 - - - -
18/09:31am 25.1 ESE 15 26 1013.5 - 0.0 - - 10 - - - -
18/09:30am 25.3 ESE 14 26 1013.6 - 0.0 - - 10 - - - -
18/09:00am 24.6 ESE 13 21 1013.4 - 0.0 - - 10 - - - -
18/08:30am 24.2 ESE 12 23 1013.6 - 0.0 - - 10 - - - -
18/08:00am 23.3 ESE 11 17 1013.6 - 0.0 - - 10 - - - -
18/07:30am 22.2 ESE 7 11 1013.7 - 0.0 - - 10 - - - -
18/07:00am 21.1 ESE 7 11 1013.5 - 0.0 - - 10 - - - -
18/06:30am 20.2 ESE 7 14 1013.1 - 0.0 - - 10 - - - -
18/06:00am 19.5 ESE 7 11 1012.4 - 0.0 - - 10 - - - -

Other Formats:

Comma delimited format used in spreadsheet applications
http://www.bom.gov.au/fwo/IDW60701/IDW60701.95101.axf

JavaScript Object Notation format (JSON) in row-major order
http://www.bom.gov.au/fwo/IDW60701/IDW60701.95101.json